Terminal Aerodrome Forecast
Issued by NWS Grand Forks, ND

Home | Current Version | Previous Version | Graphics & Text | Print | Product List | Glossary On
Versions: 1 2 3 4 5 6 7 8 9 10 11 12 13 14 15 16 17 18 19 20 21 22
894
FTUS43 KFGF 130521
TAFFAR
TAF
KFAR 130521Z 1306/1406 VRB04KT P6SM FEW250
     FM131500 14008KT P6SM SCT250
     FM131800 14013G18KT P6SM BKN200
     FM132100 14017G26KT P6SM BKN080
     FM140300 15018G28KT 3SM -SN BKN025=

USA.gov is the U.S. government's official web portal to all federal, state and local government web resources and services.